sensor_id;sensor_type;location;lat;lon;timestamp;P1;durP1;ratioP1;P2;durP2;ratioP2
17993;SDS011;9122;48.406;9.984;2023-06-14T00:00:28;5.03;;;4.63;;
17993;SDS011;9122;48.406;9.984;2023-06-14T00:03:12;4.78;;;4.35;;
17993;SDS011;9122;48.406;9.984;2023-06-14T00:06:01;4.85;;;4.45;;
17993;SDS011;9122;48.406;9.984;2023-06-14T00:08:45;4.47;;;3.80;;
17993;SDS011;9122;48.406;9.984;2023-06-14T00:11:30;4.57;;;4.27;;
17993;SDS011;9122;48.406;9.984;2023-06-14T00:14:15;6.13;;;4.67;;
17993;SDS011;9122;48.406;9.984;2023-06-14T00:16:59;5.60;;;4.30;;
17993;SDS011;9122;48.406;9.984;2023-06-14T00:19:46;6.50;;;4.43;;
17993;SDS011;9122;48.406;9.984;2023-06-14T00:22:31;4.80;;;4.40;;
17993;SDS011;9122;48.406;9.984;2023-06-14T00:25:16;4.80;;;4.40;;
17993;SDS011;9122;48.406;9.984;2023-06-14T00:28:01;4.67;;;4.20;;
17993;SDS011;9122;48.406;9.984;2023-06-14T00:30:46;4.60;;;4.20;;
17993;SDS011;9122;48.406;9.984;2023-06-14T00:33:30;7.17;;;4.77;;
17993;SDS011;9122;48.406;9.984;2023-06-14T00:36:15;4.83;;;4.43;;
17993;SDS011;9122;48.406;9.984;2023-06-14T00:38:59;5.33;;;4.83;;
17993;SDS011;9122;48.406;9.984;2023-06-14T00:41:43;5.23;;;4.83;;
17993;SDS011;9122;48.406;9.984;2023-06-14T00:44:28;5.30;;;4.50;;
17993;SDS011;9122;48.406;9.984;2023-06-14T00:47:13;5.17;;;4.60;;
17993;SDS011;9122;48.406;9.984;2023-06-14T00:49:57;5.17;;;4.77;;
17993;SDS011;9122;48.406;9.984;2023-06-14T00:52:42;5.07;;;4.67;;
17993;SDS011;9122;48.406;9.984;2023-06-14T00:55:27;4.87;;;4.37;;
17993;SDS011;9122;48.406;9.984;2023-06-14T00:58:12;4.73;;;4.33;;
17993;SDS011;9122;48.406;9.984;2023-06-14T01:00:57;6.30;;;4.50;;
17993;SDS011;9122;48.406;9.984;2023-06-14T01:03:42;4.63;;;4.23;;
17993;SDS011;9122;48.406;9.984;2023-06-14T01:09:17;5.73;;;4.67;;
17993;SDS011;9122;48.406;9.984;2023-06-14T01:15:01;5.40;;;4.90;;
17993;SDS011;9122;48.406;9.984;2023-06-14T01:17:48;5.90;;;5.30;;
17993;SDS011;9122;48.406;9.984;2023-06-14T01:20:35;5.53;;;5.03;;
17993;SDS011;9122;48.406;9.984;2023-06-14T01:23:21;5.00;;;4.60;;
17993;SDS011;9122;48.406;9.984;2023-06-14T01:26:07;5.50;;;5.10;;
17993;SDS011;9122;48.406;9.984;2023-06-14T01:28:52;6.07;;;5.53;;
17993;SDS011;9122;48.406;9.984;2023-06-14T01:31:44;7.20;;;6.60;;
17993;SDS011;9122;48.406;9.984;2023-06-14T01:34:31;6.43;;;5.93;;
17993;SDS011;9122;48.406;9.984;2023-06-14T01:37:15;5.33;;;4.93;;
17993;SDS011;9122;48.406;9.984;2023-06-14T01:40:02;5.20;;;4.80;;
17993;SDS011;9122;48.406;9.984;2023-06-14T01:42:50;7.03;;;5.37;;
17993;SDS011;9122;48.406;9.984;2023-06-14T01:45:35;4.90;;;4.23;;
17993;SDS011;9122;48.406;9.984;2023-06-14T01:48:21;4.87;;;4.40;;
17993;SDS011;9122;48.406;9.984;2023-06-14T01:51:05;6.97;;;4.70;;
17993;SDS011;9122;48.406;9.984;2023-06-14T01:53:49;5.50;;;5.07;;
17993;SDS011;9122;48.406;9.984;2023-06-14T01:56:33;4.87;;;4.47;;
17993;SDS011;9122;48.406;9.984;2023-06-14T01:59:18;4.70;;;4.30;;
17993;SDS011;9122;48.406;9.984;2023-06-14T02:02:02;6.20;;;4.40;;
17993;SDS011;9122;48.406;9.984;2023-06-14T02:04:47;4.77;;;4.37;;
17993;SDS011;9122;48.406;9.984;2023-06-14T02:07:32;5.10;;;4.70;;
17993;SDS011;9122;48.406;9.984;2023-06-14T02:10:16;4.80;;;4.50;;
17993;SDS011;9122;48.406;9.984;2023-06-14T02:13:01;4.97;;;4.67;;
17993;SDS011;9122;48.406;9.984;2023-06-14T02:15:46;5.77;;;5.33;;
17993;SDS011;9122;48.406;9.984;2023-06-14T02:18:32;5.40;;;4.53;;
17993;SDS011;9122;48.406;9.984;2023-06-14T02:21:16;5.20;;;4.80;;
17993;SDS011;9122;48.406;9.984;2023-06-14T02:24:02;5.43;;;4.80;;
17993;SDS011;9122;48.406;9.984;2023-06-14T02:26:46;4.73;;;4.33;;
17993;SDS011;9122;48.406;9.984;2023-06-14T02:29:30;5.90;;;4.70;;
17993;SDS011;9122;48.406;9.984;2023-06-14T02:32:14;5.07;;;4.67;;
17993;SDS011;9122;48.406;9.984;2023-06-14T02:34:59;5.37;;;4.83;;
17993;SDS011;9122;48.406;9.984;2023-06-14T02:37:43;8.97;;;4.80;;
17993;SDS011;9122;48.406;9.984;2023-06-14T02:40:28;6.87;;;5.17;;
17993;SDS011;9122;48.406;9.984;2023-06-14T02:43:12;5.33;;;4.93;;
17993;SDS011;9122;48.406;9.984;2023-06-14T02:45:57;5.87;;;5.33;;
17993;SDS011;9122;48.406;9.984;2023-06-14T02:48:42;5.83;;;5.23;;
17993;SDS011;9122;48.406;9.984;2023-06-14T02:51:26;7.33;;;4.50;;
17993;SDS011;9122;48.406;9.984;2023-06-14T02:54:11;6.03;;;4.73;;
17993;SDS011;9122;48.406;9.984;2023-06-14T02:56:55;6.53;;;5.23;;
17993;SDS011;9122;48.406;9.984;2023-06-14T02:59:39;5.53;;;5.03;;
17993;SDS011;9122;48.406;9.984;2023-06-14T03:02:24;11.83;;;5.53;;
17993;SDS011;9122;48.406;9.984;2023-06-14T03:05:08;5.63;;;4.67;;
17993;SDS011;9122;48.406;9.984;2023-06-14T03:07:53;5.80;;;5.30;;
17993;SDS011;9122;48.406;9.984;2023-06-14T03:10:38;4.97;;;4.57;;
17993;SDS011;9122;48.406;9.984;2023-06-14T03:13:23;5.20;;;4.80;;
17993;SDS011;9122;48.406;9.984;2023-06-14T03:16:07;5.97;;;5.37;;
17993;SDS011;9122;48.406;9.984;2023-06-14T03:18:52;5.77;;;5.33;;
17993;SDS011;9122;48.406;9.984;2023-06-14T03:21:37;5.43;;;5.03;;
17993;SDS011;9122;48.406;9.984;2023-06-14T03:24:23;5.97;;;5.47;;
17993;SDS011;9122;48.406;9.984;2023-06-14T03:27:11;7.33;;;6.03;;
17993;SDS011;9122;48.406;9.984;2023-06-14T03:29:56;5.77;;;5.27;;
17993;SDS011;9122;48.406;9.984;2023-06-14T03:32:40;5.43;;;5.03;;
17993;SDS011;9122;48.406;9.984;2023-06-14T03:35:25;5.97;;;5.47;;
17993;SDS011;9122;48.406;9.984;2023-06-14T03:38:09;5.43;;;5.03;;
17993;SDS011;9122;48.406;9.984;2023-06-14T03:40:54;5.93;;;5.40;;
17993;SDS011;9122;48.406;9.984;2023-06-14T03:43:39;6.47;;;5.47;;
17993;SDS011;9122;48.406;9.984;2023-06-14T03:46:23;6.47;;;5.03;;
17993;SDS011;9122;48.406;9.984;2023-06-14T03:49:08;5.80;;;5.20;;
17993;SDS011;9122;48.406;9.984;2023-06-14T03:51:52;6.03;;;4.73;;
17993;SDS011;9122;48.406;9.984;2023-06-14T03:54:37;5.83;;;5.30;;
17993;SDS011;9122;48.406;9.984;2023-06-14T03:57:22;6.33;;;4.93;;
17993;SDS011;9122;48.406;9.984;2023-06-14T04:00:11;5.33;;;4.93;;
17993;SDS011;9122;48.406;9.984;2023-06-14T04:02:56;5.43;;;4.93;;
17993;SDS011;9122;48.406;9.984;2023-06-14T04:05:41;4.87;;;4.47;;
17993;SDS011;9122;48.406;9.984;2023-06-14T04:08:33;5.40;;;4.90;;
17993;SDS011;9122;48.406;9.984;2023-06-14T04:11:18;5.57;;;5.17;;
17993;SDS011;9122;48.406;9.984;2023-06-14T04:14:03;6.07;;;5.47;;
17993;SDS011;9122;48.406;9.984;2023-06-14T04:16:47;6.27;;;4.80;;
17993;SDS011;9122;48.406;9.984;2023-06-14T04:19:33;4.90;;;4.50;;
17993;SDS011;9122;48.406;9.984;2023-06-14T04:22:17;4.90;;;4.40;;
17993;SDS011;9122;48.406;9.984;2023-06-14T04:25:02;5.10;;;4.70;;
17993;SDS011;9122;48.406;9.984;2023-06-14T04:27:49;5.40;;;4.90;;
17993;SDS011;9122;48.406;9.984;2023-06-14T04:30:34;5.47;;;4.93;;
17993;SDS011;9122;48.406;9.984;2023-06-14T04:33:23;5.83;;;5.23;;
17993;SDS011;9122;48.406;9.984;2023-06-14T04:36:12;5.70;;;5.10;;
17993;SDS011;9122;48.406;9.984;2023-06-14T04:38:57;6.00;;;5.17;;
17993;SDS011;9122;48.406;9.984;2023-06-14T04:41:42;5.70;;;5.00;;
17993;SDS011;9122;48.406;9.984;2023-06-14T04:44:28;5.60;;;5.10;;
17993;SDS011;9122;48.406;9.984;2023-06-14T04:47:15;5.27;;;4.77;;
17993;SDS011;9122;48.406;9.984;2023-06-14T04:50:00;5.33;;;4.93;;
17993;SDS011;9122;48.406;9.984;2023-06-14T04:52:46;7.23;;;4.70;;
17993;SDS011;9122;48.406;9.984;2023-06-14T04:55:35;6.00;;;4.97;;
17993;SDS011;9122;48.406;9.984;2023-06-14T04:58:19;5.93;;;5.40;;
17993;SDS011;9122;48.406;9.984;2023-06-14T05:01:04;6.17;;;5.57;;
17993;SDS011;9122;48.406;9.984;2023-06-14T05:03:49;10.00;;;5.93;;
17993;SDS011;9122;48.406;9.984;2023-06-14T05:06:34;6.10;;;5.10;;
17993;SDS011;9122;48.406;9.984;2023-06-14T05:09:18;4.83;;;4.43;;
17993;SDS011;9122;48.406;9.984;2023-06-14T05:12:03;5.47;;;5.03;;
17993;SDS011;9122;48.406;9.984;2023-06-14T05:14:48;4.90;;;4.20;;
17993;SDS011;9122;48.406;9.984;2023-06-14T05:17:33;5.30;;;4.80;;
17993;SDS011;9122;48.406;9.984;2023-06-14T05:20:21;5.33;;;4.83;;
17993;SDS011;9122;48.406;9.984;2023-06-14T05:23:08;4.87;;;4.43;;
17993;SDS011;9122;48.406;9.984;2023-06-14T05:25:58;6.50;;;4.93;;
17993;SDS011;9122;48.406;9.984;2023-06-14T05:28:43;5.10;;;4.63;;
17993;SDS011;9122;48.406;9.984;2023-06-14T05:31:30;5.00;;;4.60;;
17993;SDS011;9122;48.406;9.984;2023-06-14T05:34:15;4.87;;;4.47;;
17993;SDS011;9122;48.406;9.984;2023-06-14T05:36:59;5.57;;;4.73;;
17993;SDS011;9122;48.406;9.984;2023-06-14T05:39:44;5.33;;;4.83;;
17993;SDS011;9122;48.406;9.984;2023-06-14T05:42:28;4.30;;;3.90;;
17993;SDS011;9122;48.406;9.984;2023-06-14T05:45:13;5.87;;;4.80;;
17993;SDS011;9122;48.406;9.984;2023-06-14T05:47:59;6.60;;;4.33;;
17993;SDS011;9122;48.406;9.984;2023-06-14T05:50:44;5.37;;;4.97;;
17993;SDS011;9122;48.406;9.984;2023-06-14T05:53:28;4.40;;;4.10;;
17993;SDS011;9122;48.406;9.984;2023-06-14T05:56:13;4.83;;;4.27;;
17993;SDS011;9122;48.406;9.984;2023-06-14T05:58:58;5.37;;;4.90;;
17993;SDS011;9122;48.406;9.984;2023-06-14T06:01:43;5.23;;;4.83;;
17993;SDS011;9122;48.406;9.984;2023-06-14T06:04:27;4.83;;;4.43;;
17993;SDS011;9122;48.406;9.984;2023-06-14T06:07:12;4.33;;;3.97;;
17993;SDS011;9122;48.406;9.984;2023-06-14T06:09:57;4.67;;;4.30;;
17993;SDS011;9122;48.406;9.984;2023-06-14T06:12:42;6.40;;;4.63;;
17993;SDS011;9122;48.406;9.984;2023-06-14T06:15:26;5.90;;;4.53;;
17993;SDS011;9122;48.406;9.984;2023-06-14T06:18:11;5.53;;;4.93;;
17993;SDS011;9122;48.406;9.984;2023-06-14T06:20:55;4.53;;;4.13;;
17993;SDS011;9122;48.406;9.984;2023-06-14T06:23:40;4.93;;;4.53;;
17993;SDS011;9122;48.406;9.984;2023-06-14T06:26:24;5.17;;;4.70;;
17993;SDS011;9122;48.406;9.984;2023-06-14T06:29:10;5.83;;;4.97;;
17993;SDS011;9122;48.406;9.984;2023-06-14T06:31:55;5.50;;;3.83;;
17993;SDS011;9122;48.406;9.984;2023-06-14T06:34:40;4.93;;;4.23;;
17993;SDS011;9122;48.406;9.984;2023-06-14T06:37:24;4.80;;;4.40;;
17993;SDS011;9122;48.406;9.984;2023-06-14T06:40:09;4.50;;;4.10;;
17993;SDS011;9122;48.406;9.984;2023-06-14T06:42:54;4.83;;;4.53;;
17993;SDS011;9122;48.406;9.984;2023-06-14T06:45:38;5.37;;;4.30;;
17993;SDS011;9122;48.406;9.984;2023-06-14T06:48:23;5.03;;;4.50;;
17993;SDS011;9122;48.406;9.984;2023-06-14T06:51:08;8.63;;;4.60;;
17993;SDS011;9122;48.406;9.984;2023-06-14T06:53:53;5.40;;;5.00;;
17993;SDS011;9122;48.406;9.984;2023-06-14T06:56:37;4.63;;;4.27;;
17993;SDS011;9122;48.406;9.984;2023-06-14T06:59:22;5.00;;;4.60;;
17993;SDS011;9122;48.406;9.984;2023-06-14T07:02:07;5.87;;;5.17;;
17993;SDS011;9122;48.406;9.984;2023-06-14T07:04:51;7.18;;;4.97;;
17993;SDS011;9122;48.406;9.984;2023-06-14T07:07:35;4.95;;;4.45;;
17993;SDS011;9122;48.406;9.984;2023-06-14T07:10:19;4.95;;;4.55;;
17993;SDS011;9122;48.406;9.984;2023-06-14T07:13:06;6.32;;;4.60;;
17993;SDS011;9122;48.406;9.984;2023-06-14T07:15:50;4.60;;;4.30;;
17993;SDS011;9122;48.406;9.984;2023-06-14T07:18:37;5.47;;;4.45;;
17993;SDS011;9122;48.406;9.984;2023-06-14T07:21:22;4.50;;;4.18;;
17993;SDS011;9122;48.406;9.984;2023-06-14T07:24:06;5.05;;;4.57;;
17993;SDS011;9122;48.406;9.984;2023-06-14T07:26:52;5.03;;;4.68;;
17993;SDS011;9122;48.406;9.984;2023-06-14T07:29:36;4.93;;;4.63;;
17993;SDS011;9122;48.406;9.984;2023-06-14T07:32:21;4.72;;;4.32;;
17993;SDS011;9122;48.406;9.984;2023-06-14T07:35:05;8.05;;;4.53;;
17993;SDS011;9122;48.406;9.984;2023-06-14T07:37:50;5.07;;;4.55;;
17993;SDS011;9122;48.406;9.984;2023-06-14T07:40:35;4.93;;;4.53;;
17993;SDS011;9122;48.406;9.984;2023-06-14T07:43:20;5.60;;;4.95;;
17993;SDS011;9122;48.406;9.984;2023-06-14T07:46:04;5.47;;;4.97;;
17993;SDS011;9122;48.406;9.984;2023-06-14T07:48:49;5.20;;;4.70;;
17993;SDS011;9122;48.406;9.984;2023-06-14T07:51:33;4.97;;;4.57;;
17993;SDS011;9122;48.406;9.984;2023-06-14T07:54:19;5.03;;;4.22;;
17993;SDS011;9122;48.406;9.984;2023-06-14T07:57:08;6.80;;;4.70;;
17993;SDS011;9122;48.406;9.984;2023-06-14T07:59:52;5.68;;;5.07;;
17993;SDS011;9122;48.406;9.984;2023-06-14T08:02:37;5.93;;;5.43;;
17993;SDS011;9122;48.406;9.984;2023-06-14T08:05:22;5.68;;;4.78;;
17993;SDS011;9122;48.406;9.984;2023-06-14T08:08:06;5.35;;;4.90;;
17993;SDS011;9122;48.406;9.984;2023-06-14T08:10:51;4.88;;;4.50;;
17993;SDS011;9122;48.406;9.984;2023-06-14T08:13:35;4.55;;;4.10;;
17993;SDS011;9122;48.406;9.984;2023-06-14T08:16:20;5.32;;;4.30;;
17993;SDS011;9122;48.406;9.984;2023-06-14T08:19:04;5.07;;;4.68;;
17993;SDS011;9122;48.406;9.984;2023-06-14T08:21:49;4.90;;;4.05;;
17993;SDS011;9122;48.406;9.984;2023-06-14T08:24:34;8.30;;;4.95;;
17993;SDS011;9122;48.406;9.984;2023-06-14T08:27:20;5.57;;;5.05;;
17993;SDS011;9122;48.406;9.984;2023-06-14T08:30:04;4.43;;;4.00;;
17993;SDS011;9122;48.406;9.984;2023-06-14T08:32:51;4.30;;;3.80;;
17993;SDS011;9122;48.406;9.984;2023-06-14T08:35:38;7.35;;;4.20;;
17993;SDS011;9122;48.406;9.984;2023-06-14T08:38:23;11.40;;;3.97;;
17993;SDS011;9122;48.406;9.984;2023-06-14T08:41:07;4.20;;;3.88;;
17993;SDS011;9122;48.406;9.984;2023-06-14T08:43:56;4.60;;;4.18;;
17993;SDS011;9122;48.406;9.984;2023-06-14T08:46:40;4.20;;;3.80;;
17993;SDS011;9122;48.406;9.984;2023-06-14T08:49:25;4.88;;;4.38;;
17993;SDS011;9122;48.406;9.984;2023-06-14T08:52:10;5.43;;;3.80;;
17993;SDS011;9122;48.406;9.984;2023-06-14T08:54:56;5.22;;;3.88;;
17993;SDS011;9122;48.406;9.984;2023-06-14T08:57:41;3.80;;;3.50;;
17993;SDS011;9122;48.406;9.984;2023-06-14T09:00:26;4.15;;;3.85;;
17993;SDS011;9122;48.406;9.984;2023-06-14T09:03:11;6.63;;;3.35;;
17993;SDS011;9122;48.406;9.984;2023-06-14T09:05:59;3.58;;;3.28;;
17993;SDS011;9122;48.406;9.984;2023-06-14T09:08:45;4.05;;;3.30;;
17993;SDS011;9122;48.406;9.984;2023-06-14T09:11:32;6.20;;;3.90;;
17993;SDS011;9122;48.406;9.984;2023-06-14T09:14:17;3.50;;;3.15;;
17993;SDS011;9122;48.406;9.984;2023-06-14T09:17:03;3.78;;;2.90;;
17993;SDS011;9122;48.406;9.984;2023-06-14T09:19:48;3.58;;;3.20;;
17993;SDS011;9122;48.406;9.984;2023-06-14T09:22:33;3.72;;;3.42;;
17993;SDS011;9122;48.406;9.984;2023-06-14T09:25:17;3.10;;;2.80;;
17993;SDS011;9122;48.406;9.984;2023-06-14T09:28:03;4.40;;;3.58;;
17993;SDS011;9122;48.406;9.984;2023-06-14T09:30:50;3.45;;;3.15;;
17993;SDS011;9122;48.406;9.984;2023-06-14T09:33:35;4.85;;;3.72;;
17993;SDS011;9122;48.406;9.984;2023-06-14T09:36:23;3.70;;;3.33;;
17993;SDS011;9122;48.406;9.984;2023-06-14T09:39:09;2.72;;;2.53;;
17993;SDS011;9122;48.406;9.984;2023-06-14T09:41:53;2.63;;;2.50;;
17993;SDS011;9122;48.406;9.984;2023-06-14T09:44:38;3.08;;;2.78;;
17993;SDS011;9122;48.406;9.984;2023-06-14T09:47:23;3.30;;;3.10;;
17993;SDS011;9122;48.406;9.984;2023-06-14T09:50:09;3.22;;;2.92;;
17993;SDS011;9122;48.406;9.984;2023-06-14T09:52:53;2.90;;;2.70;;
17993;SDS011;9122;48.406;9.984;2023-06-14T09:55:46;3.15;;;2.90;;
17993;SDS011;9122;48.406;9.984;2023-06-14T09:58:32;2.92;;;2.72;;
17993;SDS011;9122;48.406;9.984;2023-06-14T10:01:21;3.22;;;2.95;;
17993;SDS011;9122;48.406;9.984;2023-06-14T10:04:09;3.10;;;2.90;;
17993;SDS011;9122;48.406;9.984;2023-06-14T10:06:54;3.65;;;3.35;;
17993;SDS011;9122;48.406;9.984;2023-06-14T10:09:39;3.30;;;3.00;;
17993;SDS011;9122;48.406;9.984;2023-06-14T10:12:28;2.90;;;2.70;;
17993;SDS011;9122;48.406;9.984;2023-06-14T10:15:28;3.60;;;3.30;;
17993;SDS011;9122;48.406;9.984;2023-06-14T10:24:43;3.80;;;3.50;;
17993;SDS011;9122;48.406;9.984;2023-06-14T10:27:28;3.38;;;3.08;;
17993;SDS011;9122;48.406;9.984;2023-06-14T10:30:14;3.72;;;3.42;;
17993;SDS011;9122;48.406;9.984;2023-06-14T10:33:05;4.97;;;3.28;;
17993;SDS011;9122;48.406;9.984;2023-06-14T10:36:06;3.33;;;3.13;;
17993;SDS011;9122;48.406;9.984;2023-06-14T10:38:57;3.40;;;3.20;;
17993;SDS011;9122;48.406;9.984;2023-06-14T10:41:54;4.20;;;3.38;;
17993;SDS011;9122;48.406;9.984;2023-06-14T10:47:26;4.72;;;3.05;;
17993;SDS011;9122;48.406;9.984;2023-06-14T10:50:11;3.53;;;3.22;;
17993;SDS011;9122;48.406;9.984;2023-06-14T10:52:58;3.60;;;3.38;;
17993;SDS011;9122;48.406;9.984;2023-06-14T10:55:42;3.33;;;3.03;;
17993;SDS011;9122;48.406;9.984;2023-06-14T10:58:27;3.47;;;3.17;;
17993;SDS011;9122;48.406;9.984;2023-06-14T11:01:11;5.20;;;3.47;;
17993;SDS011;9122;48.406;9.984;2023-06-14T11:03:56;4.25;;;3.90;;
17993;SDS011;9122;48.406;9.984;2023-06-14T11:06:48;3.30;;;2.97;;
17993;SDS011;9122;48.406;9.984;2023-06-14T11:12:50;3.42;;;3.05;;
17993;SDS011;9122;48.406;9.984;2023-06-14T11:15:38;3.63;;;3.33;;
17993;SDS011;9122;48.406;9.984;2023-06-14T11:18:28;3.72;;;3.40;;
17993;SDS011;9122;48.406;9.984;2023-06-14T11:21:19;3.38;;;3.10;;
17993;SDS011;9122;48.406;9.984;2023-06-14T11:24:04;3.15;;;2.92;;
17993;SDS011;9122;48.406;9.984;2023-06-14T11:26:55;7.45;;;3.80;;
17993;SDS011;9122;48.406;9.984;2023-06-14T11:29:47;5.20;;;3.85;;
17993;SDS011;9122;48.406;9.984;2023-06-14T11:32:32;4.13;;;3.17;;
17993;SDS011;9122;48.406;9.984;2023-06-14T11:35:17;3.60;;;2.92;;
17993;SDS011;9122;48.406;9.984;2023-06-14T11:38:03;3.78;;;3.58;;
17993;SDS011;9122;48.406;9.984;2023-06-14T11:40:48;4.03;;;3.47;;
17993;SDS011;9122;48.406;9.984;2023-06-14T11:43:32;3.35;;;3.10;;
17993;SDS011;9122;48.406;9.984;2023-06-14T11:46:18;3.33;;;3.13;;
17993;SDS011;9122;48.406;9.984;2023-06-14T11:49:07;6.50;;;3.45;;
17993;SDS011;9122;48.406;9.984;2023-06-14T11:51:52;3.85;;;3.42;;
17993;SDS011;9122;48.406;9.984;2023-06-14T11:54:37;3.22;;;2.97;;
17993;SDS011;9122;48.406;9.984;2023-06-14T11:57:22;4.00;;;3.58;;
17993;SDS011;9122;48.406;9.984;2023-06-14T12:00:07;3.85;;;3.55;;
17993;SDS011;9122;48.406;9.984;2023-06-14T12:02:56;5.18;;;3.30;;
17993;SDS011;9122;48.406;9.984;2023-06-14T12:05:40;3.28;;;3.08;;
17993;SDS011;9122;48.406;9.984;2023-06-14T12:08:24;3.53;;;3.25;;
17993;SDS011;9122;48.406;9.984;2023-06-14T12:11:22;3.40;;;3.20;;
17993;SDS011;9122;48.406;9.984;2023-06-14T12:14:08;3.38;;;3.17;;
17993;SDS011;9122;48.406;9.984;2023-06-14T12:17:03;3.63;;;3.33;;
17993;SDS011;9122;48.406;9.984;2023-06-14T12:19:50;4.30;;;3.83;;
17993;SDS011;9122;48.406;9.984;2023-06-14T12:22:34;3.45;;;3.15;;
17993;SDS011;9122;48.406;9.984;2023-06-14T12:25:23;3.63;;;3.33;;
17993;SDS011;9122;48.406;9.984;2023-06-14T12:28:11;3.40;;;3.20;;
17993;SDS011;9122;48.406;9.984;2023-06-14T12:30:56;3.58;;;3.38;;
17993;SDS011;9122;48.406;9.984;2023-06-14T12:33:42;3.50;;;3.25;;
17993;SDS011;9122;48.406;9.984;2023-06-14T12:36:27;4.72;;;3.20;;
17993;SDS011;9122;48.406;9.984;2023-06-14T12:39:12;4.43;;;3.60;;
17993;SDS011;9122;48.406;9.984;2023-06-14T12:41:57;3.22;;;3.03;;
17993;SDS011;9122;48.406;9.984;2023-06-14T12:44:41;3.53;;;3.33;;
17993;SDS011;9122;48.406;9.984;2023-06-14T12:47:26;3.20;;;3.00;;
17993;SDS011;9122;48.406;9.984;2023-06-14T12:50:11;3.03;;;2.78;;
17993;SDS011;9122;48.406;9.984;2023-06-14T12:52:55;3.50;;;3.20;;
17993;SDS011;9122;48.406;9.984;2023-06-14T12:55:39;4.38;;;3.20;;
17993;SDS011;9122;48.406;9.984;2023-06-14T12:58:24;3.88;;;3.50;;
17993;SDS011;9122;48.406;9.984;2023-06-14T13:01:09;3.45;;;3.15;;
17993;SDS011;9122;48.406;9.984;2023-06-14T13:03:53;3.78;;;3.47;;
17993;SDS011;9122;48.406;9.984;2023-06-14T13:06:38;3.30;;;3.10;;
17993;SDS011;9122;48.406;9.984;2023-06-14T13:09:23;3.53;;;3.30;;
17993;SDS011;9122;48.406;9.984;2023-06-14T13:12:08;2.90;;;2.70;;
17993;SDS011;9122;48.406;9.984;2023-06-14T13:14:54;3.33;;;3.13;;
17993;SDS011;9122;48.406;9.984;2023-06-14T13:17:38;3.72;;;3.33;;
17993;SDS011;9122;48.406;9.984;2023-06-14T13:20:24;3.28;;;3.08;;
17993;SDS011;9122;48.406;9.984;2023-06-14T13:23:08;3.50;;;3.22;;
17993;SDS011;9122;48.406;9.984;2023-06-14T13:25:53;3.20;;;2.90;;
17993;SDS011;9122;48.406;9.984;2023-06-14T13:28:38;3.53;;;3.33;;
17993;SDS011;9122;48.406;9.984;2023-06-14T13:31:22;6.35;;;3.60;;
17993;SDS011;9122;48.406;9.984;2023-06-14T13:34:06;3.55;;;3.25;;
17993;SDS011;9122;48.406;9.984;2023-06-14T13:36:51;4.22;;;3.08;;
17993;SDS011;9122;48.406;9.984;2023-06-14T13:39:35;3.83;;;3.53;;
17993;SDS011;9122;48.406;9.984;2023-06-14T13:42:21;3.17;;;2.90;;
17993;SDS011;9122;48.406;9.984;2023-06-14T13:45:06;3.55;;;3.05;;
17993;SDS011;9122;48.406;9.984;2023-06-14T13:47:51;4.00;;;3.35;;
17993;SDS011;9122;48.406;9.984;2023-06-14T13:50:35;3.72;;;3.42;;
17993;SDS011;9122;48.406;9.984;2023-06-14T13:53:20;5.38;;;3.25;;
17993;SDS011;9122;48.406;9.984;2023-06-14T13:56:04;3.72;;;3.50;;
17993;SDS011;9122;48.406;9.984;2023-06-14T13:58:49;3.47;;;3.17;;
17993;SDS011;9122;48.406;9.984;2023-06-14T14:01:34;2.97;;;2.78;;
17993;SDS011;9122;48.406;9.984;2023-06-14T14:04:19;3.22;;;3.03;;
17993;SDS011;9122;48.406;9.984;2023-06-14T14:07:04;3.40;;;3.10;;
17993;SDS011;9122;48.406;9.984;2023-06-14T14:09:49;3.67;;;3.42;;
17993;SDS011;9122;48.406;9.984;2023-06-14T14:12:33;3.50;;;3.28;;
17993;SDS011;9122;48.406;9.984;2023-06-14T14:15:20;3.10;;;2.90;;
17993;SDS011;9122;48.406;9.984;2023-06-14T14:18:04;4.90;;;3.00;;
17993;SDS011;9122;48.406;9.984;2023-06-14T14:20:49;3.53;;;3.28;;
17993;SDS011;9122;48.406;9.984;2023-06-14T14:23:33;5.13;;;3.20;;
17993;SDS011;9122;48.406;9.984;2023-06-14T14:26:18;3.90;;;3.35;;
17993;SDS011;9122;48.406;9.984;2023-06-14T14:29:03;4.72;;;3.38;;
17993;SDS011;9122;48.406;9.984;2023-06-14T14:31:48;4.38;;;3.88;;
17993;SDS011;9122;48.406;9.984;2023-06-14T14:34:32;3.22;;;3.03;;
17993;SDS011;9122;48.406;9.984;2023-06-14T14:37:16;3.75;;;3.40;;
17993;SDS011;9122;48.406;9.984;2023-06-14T14:40:01;4.05;;;2.90;;
17993;SDS011;9122;48.406;9.984;2023-06-14T14:42:47;3.35;;;3.05;;
17993;SDS011;9122;48.406;9.984;2023-06-14T14:45:32;2.95;;;2.75;;
17993;SDS011;9122;48.406;9.984;2023-06-14T14:48:16;4.10;;;3.40;;
17993;SDS011;9122;48.406;9.984;2023-06-14T14:51:00;3.88;;;3.58;;
17993;SDS011;9122;48.406;9.984;2023-06-14T14:53:45;3.45;;;3.15;;
17993;SDS011;9122;48.406;9.984;2023-06-14T14:56:30;3.53;;;3.33;;
17993;SDS011;9122;48.406;9.984;2023-06-14T14:59:15;3.90;;;3.60;;
17993;SDS011;9122;48.406;9.984;2023-06-14T15:01:59;4.30;;;3.50;;
17993;SDS011;9122;48.406;9.984;2023-06-14T15:04:44;4.10;;;3.70;;
17993;SDS011;9122;48.406;9.984;2023-06-14T15:07:30;3.30;;;3.00;;
17993;SDS011;9122;48.406;9.984;2023-06-14T15:10:15;5.35;;;3.50;;
17993;SDS011;9122;48.406;9.984;2023-06-14T15:13:00;3.75;;;3.42;;
17993;SDS011;9122;48.406;9.984;2023-06-14T15:15:45;3.97;;;3.38;;
17993;SDS011;9122;48.406;9.984;2023-06-14T15:18:29;4.15;;;3.85;;
17993;SDS011;9122;48.406;9.984;2023-06-14T15:21:13;3.72;;;3.50;;
17993;SDS011;9122;48.406;9.984;2023-06-14T15:23:58;3.28;;;3.08;;
17993;SDS011;9122;48.406;9.984;2023-06-14T15:26:43;5.65;;;3.17;;
17993;SDS011;9122;48.406;9.984;2023-06-14T15:29:27;3.67;;;3.38;;
17993;SDS011;9122;48.406;9.984;2023-06-14T15:32:12;3.42;;;3.22;;
17993;SDS011;9122;48.406;9.984;2023-06-14T15:34:56;3.88;;;3.58;;
17993;SDS011;9122;48.406;9.984;2023-06-14T15:37:40;4.45;;;3.50;;
17993;SDS011;9122;48.406;9.984;2023-06-14T15:40:25;4.13;;;3.38;;
17993;SDS011;9122;48.406;9.984;2023-06-14T15:43:10;4.03;;;3.75;;
17993;SDS011;9122;48.406;9.984;2023-06-14T15:45:55;3.92;;;3.63;;
17993;SDS011;9122;48.406;9.984;2023-06-14T15:48:39;3.95;;;3.25;;
17993;SDS011;9122;48.406;9.984;2023-06-14T15:51:24;3.40;;;3.20;;
17993;SDS011;9122;48.406;9.984;2023-06-14T15:54:15;4.43;;;3.65;;
17993;SDS011;9122;48.406;9.984;2023-06-14T15:57:00;3.45;;;3.25;;
17993;SDS011;9122;48.406;9.984;2023-06-14T15:59:44;3.58;;;3.30;;
17993;SDS011;9122;48.406;9.984;2023-06-14T16:02:29;3.97;;;3.63;;
17993;SDS011;9122;48.406;9.984;2023-06-14T16:05:13;3.70;;;3.45;;
17993;SDS011;9122;48.406;9.984;2023-06-14T16:07:58;3.75;;;3.45;;
17993;SDS011;9122;48.406;9.984;2023-06-14T16:10:42;3.88;;;3.58;;
17993;SDS011;9122;48.406;9.984;2023-06-14T16:13:27;3.45;;;3.20;;
17993;SDS011;9122;48.406;9.984;2023-06-14T16:16:12;3.00;;;2.80;;
17993;SDS011;9122;48.406;9.984;2023-06-14T16:18:56;3.15;;;2.95;;
17993;SDS011;9122;48.406;9.984;2023-06-14T16:21:41;6.43;;;3.35;;
17993;SDS011;9122;48.406;9.984;2023-06-14T16:24:25;3.30;;;3.10;;
17993;SDS011;9122;48.406;9.984;2023-06-14T16:27:09;5.30;;;3.63;;
17993;SDS011;9122;48.406;9.984;2023-06-14T16:29:54;4.65;;;3.50;;
17993;SDS011;9122;48.406;9.984;2023-06-14T16:32:39;3.50;;;3.20;;
17993;SDS011;9122;48.406;9.984;2023-06-14T16:35:23;3.15;;;2.88;;
17993;SDS011;9122;48.406;9.984;2023-06-14T16:38:07;3.50;;;3.17;;
17993;SDS011;9122;48.406;9.984;2023-06-14T16:40:52;3.17;;;2.97;;
17993;SDS011;9122;48.406;9.984;2023-06-14T16:43:37;3.53;;;3.22;;
17993;SDS011;9122;48.406;9.984;2023-06-14T16:46:31;3.15;;;2.90;;
17993;SDS011;9122;48.406;9.984;2023-06-14T16:49:17;3.60;;;3.40;;
17993;SDS011;9122;48.406;9.984;2023-06-14T16:52:02;3.70;;;3.47;;
17993;SDS011;9122;48.406;9.984;2023-06-14T16:54:46;3.30;;;3.10;;
17993;SDS011;9122;48.406;9.984;2023-06-14T16:57:31;3.70;;;3.40;;
17993;SDS011;9122;48.406;9.984;2023-06-14T17:00:16;3.63;;;3.42;;
17993;SDS011;9122;48.406;9.984;2023-06-14T17:03:00;3.85;;;3.58;;
17993;SDS011;9122;48.406;9.984;2023-06-14T17:05:58;3.78;;;3.47;;
17993;SDS011;9122;48.406;9.984;2023-06-14T17:08:42;4.93;;;3.55;;